Pagrindinis puslapis
METAR-TAF:

METAR-TAF

Oro uostai :

Visbis, Gotlandas, Švedija

platuma: 57-40N, ilguma: 018-21E, Aukštis: 51 m

Dabartinis oras

Ataskaita buvo paskelbta 42 minutes, ne 01:50 UTC
Vėjas 15 kt iš Pietvakarių
Temperatūra 5°C
Drėgmė 81%
Slėgis 997 hPa
Matomumas 10 km arba daugiau

METAR: ESSV 020150Z AUTO 23015KT 9999 OVC028/// 05/02 Q0997

Laikas: 04:32 (02:32 UTC)

Prognozė

Ataskaita buvo paskelbta 1 valandą ir 2 minutes, ne 01:30 UTC
Prognozė galioja nuo 02 metu 02 UTC su 02 metu 09 UTC
Vėjas 12 kt iš Vakarų/Pietvakarių
Matomumas 10 km arba daugiau
nėra debesų žemiau 1500 m ir nėra kamuolinių lietaus debesų
Tapsmas
nuo 02 metu 05 UTC su 02 metu 07 UTC
Vėjas 15 kt iš Vakarų/Pietvakarių su gūsio iki 27 kt

TAF: ESSV 020130Z 0202/0209 24012KT CAVOK BECMG 0205/0207 25015G27KT

Orai ataskaitas ir orų prognozės (METAR, TAF).

turimą stotys yra geltonos ir raudonos taškus žemėlapyje.

Perkelti pele per norėdami pamatyti stoties vardą.

Tada spustelėkite, norėdami matyti oro stebėjimo ir prognozės.

Norėdami pakeisti žemėlapį: spustelėkite ant žalios mygtukų su juodo kryžiaus žemyn,; žalią mygtuką su brūkšneliu, jei norite nutolinti; arba žalių rodyklių gretimoms žemėlapius.


METAR-TAF: